createdAt,value
2022-10-04T00:02:15.251Z,20.38
2022-10-04T00:05:22.709Z,23.13
2022-10-04T00:11:55.846Z,21.10
2022-10-04T00:15:01.830Z,22.38
2022-10-04T00:18:28.364Z,18.10
2022-10-04T00:21:52.482Z,13.52
2022-10-04T00:25:18.250Z,18.48
2022-10-04T00:28:25.578Z,22.33
2022-10-04T00:31:29.339Z,23.88
2022-10-04T00:34:33.029Z,24.60
2022-10-04T00:38:13.578Z,29.02
2022-10-04T00:41:16.031Z,26.80
2022-10-04T00:44:36.626Z,29.42
2022-10-04T00:47:46.749Z,29.55
2022-10-04T00:50:59.113Z,28.40
2022-10-04T00:54:20.455Z,32.70
2022-10-04T00:57:45.016Z,34.63
2022-10-04T01:00:49.859Z,37.33
2022-10-04T01:03:57.146Z,34.50
2022-10-04T01:07:04.173Z,32.22
2022-10-04T01:10:14.877Z,33.70
2022-10-04T01:13:27.845Z,38.50
2022-10-04T01:16:33.908Z,49.60
2022-10-04T01:19:34.799Z,36.88
2022-10-04T01:22:48.852Z,46.35
2022-10-04T01:25:52.160Z,35.08
2022-10-04T01:28:59.102Z,35.70
2022-10-04T01:32:01.953Z,44.97
2022-10-04T01:35:03.153Z,38.40
2022-10-04T01:38:07.373Z,40.55
2022-10-04T01:41:12.101Z,45.22
2022-10-04T01:44:31.814Z,50.70
2022-10-04T01:47:47.075Z,52.05
2022-10-04T01:51:05.749Z,40.80
2022-10-04T01:54:20.228Z,42.97
2022-10-04T01:57:41.351Z,39.90
2022-10-04T02:01:07.490Z,53.80
2022-10-04T02:04:22.033Z,43.20
2022-10-04T02:07:28.572Z,41.55
2022-10-04T02:10:30.467Z,46.40
2022-10-04T02:13:39.602Z,310.17
2022-10-04T02:16:40.544Z,659.22
2022-10-04T02:19:43.375Z,162.50
2022-10-04T02:22:49.696Z,123.57
2022-10-04T02:25:52.140Z,58.77
2022-10-04T02:28:53.271Z,40.38
2022-10-04T02:32:13.191Z,56.20
2022-10-04T02:35:14.239Z,46.83
2022-10-04T02:38:25.522Z,37.90
2022-10-04T02:41:42.186Z,53.13
2022-10-04T02:44:56.895Z,58.93
2022-10-04T02:48:27.741Z,61.53
2022-10-04T02:51:46.967Z,54.95
2022-10-04T02:55:20.642Z,50.25
2022-10-04T02:58:25.942Z,66.25
2022-10-04T03:01:58.127Z,64.22
2022-10-04T03:05:13.460Z,74.70
2022-10-04T03:08:15.105Z,58.83
2022-10-04T03:11:19.251Z,66.65
2022-10-04T03:14:25.172Z,56.55
2022-10-04T03:17:26.535Z,52.60
2022-10-04T03:20:28.545Z,60.05
2022-10-04T03:23:33.617Z,57.22
2022-10-04T03:26:47.344Z,61.90
2022-10-04T03:29:50.578Z,69.45
2022-10-04T03:32:53.171Z,72.68
2022-10-04T03:35:59.282Z,71.15
2022-10-04T03:39:00.457Z,71.15
2022-10-04T03:42:36.397Z,66.68
2022-10-04T03:45:37.580Z,63.83
2022-10-04T03:48:45.213Z,62.78
2022-10-04T03:51:51.295Z,77.38
2022-10-04T03:54:57.599Z,76.93
2022-10-04T03:58:02.544Z,76.47
2022-10-04T04:01:11.602Z,70.25
2022-10-04T04:04:31.362Z,65.63
2022-10-04T04:07:37.695Z,65.15
2022-10-04T04:10:46.650Z,73.68
2022-10-04T04:13:57.058Z,65.35
2022-10-04T04:17:41.063Z,63.40
2022-10-04T04:20:44.221Z,67.28
2022-10-04T04:23:58.250Z,65.20
2022-10-04T04:27:05.469Z,78.63
2022-10-04T04:30:13.472Z,49.10
2022-10-04T04:33:29.868Z,50.20
2022-10-04T04:36:40.614Z,50.47
2022-10-04T04:39:41.639Z,56.22
2022-10-04T04:42:43.081Z,55.88
2022-10-04T04:45:45.367Z,48.15
2022-10-04T04:48:52.551Z,48.38
2022-10-04T04:51:53.809Z,46.17
2022-10-04T04:54:56.741Z,45.35
2022-10-04T04:57:59.580Z,47.78
2022-10-04T05:01:18.023Z,42.88
2022-10-04T05:04:24.177Z,40.60
2022-10-04T05:07:25.149Z,53.75
2022-10-04T05:10:34.328Z,46.78
2022-10-04T05:14:02.048Z,41.58
2022-10-04T05:17:03.062Z,39.13
2022-10-04T05:20:05.921Z,39.60
2022-10-04T05:23:13.155Z,45.92
2022-10-04T05:26:14.935Z,37.78
2022-10-04T05:29:27.815Z,36.78
2022-10-04T05:32:53.929Z,33.15
2022-10-04T05:36:19.095Z,30.52
2022-10-04T05:39:58.083Z,39.15
2022-10-04T05:42:59.634Z,40.45
2022-10-04T05:46:23.394Z,35.00
2022-10-04T05:49:30.894Z,34.75
2022-10-04T05:52:38.760Z,39.72
2022-10-04T05:56:11.834Z,35.95
2022-10-04T05:59:40.750Z,28.75
2022-10-04T06:03:18.782Z,29.00
2022-10-04T06:06:43.183Z,31.80
2022-10-04T06:10:28.947Z,39.97
2022-10-04T06:14:18.088Z,48.10
2022-10-04T06:17:45.858Z,45.90
2022-10-04T06:21:13.494Z,40.83
2022-10-04T06:24:27.495Z,54.63
2022-10-04T06:27:41.750Z,80.55
2022-10-04T06:31:28.824Z,92.22
2022-10-04T06:34:59.174Z,87.18
2022-10-04T06:39:08.830Z,86.78
2022-10-04T06:43:05.854Z,76.18
2022-10-04T06:46:29.380Z,88.72
2022-10-04T06:49:45.688Z,76.63
2022-10-04T06:53:04.042Z,82.60
2022-10-04T06:56:38.334Z,80.57
2022-10-04T07:00:03.550Z,76.60
2022-10-04T07:03:26.680Z,66.82
2022-10-04T07:06:42.341Z,81.07
2022-10-04T07:09:45.701Z,66.35
2022-10-04T07:13:24.162Z,73.45
2022-10-04T07:16:35.527Z,57.45
2022-10-04T07:19:46.687Z,63.33
2022-10-04T07:23:00.012Z,79.80
2022-10-04T07:26:20.800Z,45.15
2022-10-04T07:29:42.486Z,44.53
2022-10-04T07:32:51.908Z,78.25
2022-10-04T07:36:06.448Z,104.97
2022-10-04T07:39:32.043Z,58.72
2022-10-04T07:42:54.512Z,55.55
2022-10-04T07:46:12.701Z,44.70
2022-10-04T07:49:17.014Z,53.92
2022-10-04T07:52:57.817Z,76.32
2022-10-04T07:56:14.828Z,64.78
2022-10-04T07:59:36.796Z,55.28
2022-10-04T08:03:18.432Z,53.35
2022-10-04T08:06:59.518Z,53.90
2022-10-04T08:10:35.614Z,44.67
2022-10-04T08:13:36.553Z,50.08
2022-10-04T08:17:09.840Z,43.08
2022-10-04T08:20:58.180Z,34.60
2022-10-04T08:24:36.837Z,37.72
2022-10-04T08:28:09.447Z,31.13
2022-10-04T08:31:45.132Z,36.33
2022-10-04T08:35:11.620Z,29.80
2022-10-04T08:38:28.607Z,40.08
2022-10-04T08:42:11.332Z,26.95
2022-10-04T08:45:54.317Z,20.58
2022-10-04T08:49:29.111Z,28.75
2022-10-04T08:53:35.522Z,25.13
2022-10-04T08:57:03.333Z,23.83
2022-10-04T09:00:56.923Z,28.35
2022-10-04T09:04:06.845Z,21.75
2022-10-04T09:07:41.452Z,17.52
2022-10-04T09:11:05.792Z,27.65
2022-10-04T09:14:46.704Z,20.80
2022-10-04T09:18:06.738Z,26.58
2022-10-04T09:21:18.505Z,26.15
2022-10-04T09:24:35.027Z,25.33
2022-10-04T09:28:06.471Z,28.00
2022-10-04T09:31:44.519Z,27.13
2022-10-04T09:35:12.579Z,19.17
2022-10-04T09:39:01.109Z,26.95
2022-10-04T09:42:31.871Z,21.90
2022-10-04T09:46:20.256Z,18.08
2022-10-04T09:49:58.982Z,17.45
2022-10-04T09:53:24.960Z,17.20
2022-10-04T09:57:19.491Z,18.38
2022-10-04T10:00:25.375Z,24.65
2022-10-04T10:04:10.075Z,16.90
2022-10-04T10:07:44.606Z,16.40
2022-10-04T10:11:39.905Z,13.38
2022-10-04T10:15:28.874Z,14.32
2022-10-04T10:18:53.080Z,14.05
2022-10-04T10:22:31.540Z,19.17
2022-10-04T10:26:07.838Z,14.65
2022-10-04T10:29:32.410Z,12.93
2022-10-04T10:33:03.260Z,12.63
2022-10-04T10:36:34.475Z,13.25
2022-10-04T10:40:23.782Z,13.15
2022-10-04T10:43:52.059Z,14.88
2022-10-04T10:47:01.664Z,14.40
2022-10-04T10:50:25.509Z,13.05
2022-10-04T10:53:46.361Z,14.30
2022-10-04T10:56:59.603Z,14.68
2022-10-04T11:00:32.819Z,12.55
2022-10-04T11:04:03.977Z,13.60
2022-10-04T11:07:26.420Z,13.00
2022-10-04T11:11:07.814Z,15.98
2022-10-04T11:15:06.257Z,12.98
2022-10-04T11:18:49.196Z,13.32
2022-10-04T11:22:24.228Z,13.20
2022-10-04T11:25:39.960Z,14.90
2022-10-04T11:29:23.222Z,12.52
2022-10-04T11:33:20.624Z,11.90
2022-10-04T11:36:57.169Z,11.65
2022-10-04T11:40:25.860Z,12.70
2022-10-04T11:44:05.370Z,12.15
2022-10-04T11:47:37.797Z,12.40
2022-10-04T11:51:11.156Z,11.70
2022-10-04T11:54:35.567Z,11.75
2022-10-04T11:57:52.638Z,13.30
2022-10-04T12:01:21.164Z,13.93
2022-10-04T12:04:53.830Z,12.02
2022-10-04T12:08:19.628Z,12.00
2022-10-04T12:12:23.639Z,11.63
2022-10-04T12:16:04.481Z,13.25
2022-10-04T12:19:25.866Z,12.07
2022-10-04T12:22:54.207Z,14.77
2022-10-04T12:26:32.252Z,12.00
2022-10-04T12:29:48.986Z,11.73
2022-10-04T12:33:34.649Z,11.15
2022-10-04T12:37:11.594Z,10.05
2022-10-04T12:40:34.627Z,13.15
2022-10-04T12:44:34.218Z,10.23
2022-10-04T12:48:13.955Z,12.73
2022-10-04T12:51:57.802Z,10.20
2022-10-04T12:55:38.185Z,9.18
2022-10-04T12:58:59.764Z,9.85
2022-10-04T13:02:21.838Z,9.95
2022-10-04T13:05:53.362Z,9.40
2022-10-04T13:09:30.541Z,10.30
2022-10-04T13:13:11.679Z,10.27
2022-10-04T13:20:51.047Z,10.65
2022-10-04T13:24:28.541Z,11.02
2022-10-04T13:27:54.995Z,12.00
2022-10-04T13:31:24.551Z,11.85
2022-10-04T13:34:57.030Z,11.45
2022-10-04T13:38:39.616Z,12.20
2022-10-04T13:42:12.323Z,12.63
2022-10-04T13:45:36.384Z,12.45
2022-10-04T13:49:01.444Z,11.98
2022-10-04T13:52:32.359Z,12.18
2022-10-04T13:56:18.122Z,12.35
2022-10-04T13:59:42.443Z,11.20
2022-10-04T14:03:20.144Z,11.48
2022-10-04T14:06:58.932Z,11.52
2022-10-04T14:10:35.218Z,10.93
2022-10-04T14:14:02.693Z,12.70
2022-10-04T14:17:42.286Z,11.13
2022-10-04T14:21:06.203Z,11.85
2022-10-04T14:24:37.352Z,13.20
2022-10-04T14:28:08.258Z,11.57
2022-10-04T14:32:04.487Z,11.70
2022-10-04T14:39:14.162Z,12.02
2022-10-04T14:43:16.770Z,13.77
2022-10-04T14:46:50.134Z,13.05
2022-10-04T14:50:27.018Z,12.80
2022-10-04T14:53:53.640Z,13.93
2022-10-04T14:57:16.455Z,14.88
2022-10-04T15:01:05.629Z,13.27
2022-10-04T15:04:40.217Z,12.32
2022-10-04T15:07:52.694Z,12.63
2022-10-04T15:11:05.083Z,12.25
2022-10-04T15:14:32.663Z,12.80
2022-10-04T15:17:55.299Z,12.35
2022-10-04T15:21:23.732Z,13.32
2022-10-04T15:24:46.922Z,10.95
2022-10-04T15:27:55.032Z,13.70
2022-10-04T15:31:20.966Z,10.75
2022-10-04T15:34:54.467Z,10.77
2022-10-04T15:38:20.116Z,11.15
2022-10-04T15:41:48.935Z,12.75
2022-10-04T15:45:18.941Z,12.43
2022-10-04T15:48:36.969Z,13.43
2022-10-04T15:52:03.596Z,13.32
2022-10-04T15:55:19.752Z,14.50
2022-10-04T15:59:08.903Z,13.07
2022-10-04T16:03:09.318Z,14.60
2022-10-04T16:06:28.121Z,13.23
2022-10-04T16:10:16.923Z,12.43
2022-10-04T16:13:23.552Z,12.40
2022-10-04T16:16:40.531Z,12.00
2022-10-04T16:20:02.151Z,14.23
2022-10-04T16:23:34.112Z,17.08
2022-10-04T16:26:35.010Z,15.95
2022-10-04T16:30:25.174Z,14.05
2022-10-04T16:33:35.132Z,14.55
2022-10-04T16:37:12.428Z,16.42
2022-10-04T16:40:13.387Z,15.85
2022-10-04T16:43:17.106Z,23.55
2022-10-04T16:46:46.249Z,20.77
2022-10-04T16:49:55.357Z,16.30
2022-10-04T16:53:45.904Z,18.98
2022-10-04T16:56:58.322Z,14.63
2022-10-04T17:00:33.807Z,12.30
2022-10-04T17:03:46.324Z,13.20
2022-10-04T17:06:58.420Z,18.35
2022-10-04T17:10:34.347Z,17.02
2022-10-04T17:13:56.390Z,18.48
2022-10-04T17:17:18.322Z,16.27
2022-10-04T17:20:38.023Z,16.45
2022-10-04T17:24:14.560Z,19.17
2022-10-04T17:27:45.339Z,17.23
2022-10-04T17:31:07.947Z,19.92
2022-10-04T17:34:42.593Z,20.05
2022-10-04T17:38:04.688Z,20.00
2022-10-04T17:41:48.792Z,21.13
2022-10-04T17:45:25.976Z,29.45
2022-10-04T17:48:51.769Z,23.42
2022-10-04T17:52:15.474Z,28.13
2022-10-04T17:55:23.032Z,28.52
2022-10-04T17:58:46.296Z,24.30
2022-10-04T18:01:55.752Z,25.17
2022-10-04T18:05:18.484Z,25.10
2022-10-04T18:08:38.565Z,29.63
2022-10-04T18:11:50.644Z,25.30
2022-10-04T18:15:02.620Z,33.22
2022-10-04T18:18:16.313Z,27.30
2022-10-04T18:21:33.245Z,33.03
2022-10-04T18:24:34.367Z,37.50
2022-10-04T18:27:52.091Z,32.75
2022-10-04T18:31:00.529Z,38.47
2022-10-04T18:34:10.795Z,40.92
2022-10-04T18:37:40.954Z,39.25
2022-10-04T18:40:52.410Z,41.28
2022-10-04T18:43:59.851Z,47.90
2022-10-04T18:47:02.367Z,53.55
2022-10-04T18:50:36.260Z,39.63
2022-10-04T18:53:50.376Z,42.33
2022-10-04T18:57:54.748Z,44.95
2022-10-04T19:01:38.886Z,38.60
2022-10-04T19:05:01.560Z,39.92
2022-10-04T19:08:33.750Z,41.53
2022-10-04T19:12:03.617Z,67.55
2022-10-04T19:15:44.445Z,56.25
2022-10-04T19:19:04.550Z,40.05
2022-10-04T19:22:23.243Z,46.47
2022-10-04T19:25:39.356Z,68.68
2022-10-04T19:28:41.054Z,72.60
2022-10-04T19:32:48.043Z,76.18
2022-10-04T19:36:19.895Z,71.22
2022-10-04T19:39:51.806Z,75.00
2022-10-04T19:43:10.333Z,66.18
2022-10-04T19:46:17.362Z,73.07
2022-10-04T19:49:37.830Z,64.65
2022-10-04T19:52:48.900Z,56.13
2022-10-04T19:55:59.934Z,40.30
2022-10-04T19:59:15.835Z,43.35
2022-10-04T20:02:16.873Z,43.13
2022-10-04T20:05:28.345Z,36.50
2022-10-04T20:08:47.800Z,42.80
2022-10-04T20:11:52.284Z,39.45
2022-10-04T20:15:43.509Z,39.78
2022-10-04T20:18:44.570Z,54.33
2022-10-04T20:21:45.947Z,55.38
2022-10-04T20:24:46.809Z,53.70
2022-10-04T20:27:47.325Z,65.60
2022-10-04T20:30:53.613Z,63.65
2022-10-04T20:33:54.446Z,74.25
2022-10-04T20:36:55.159Z,61.33
2022-10-04T20:39:57.247Z,59.42
2022-10-04T20:43:13.547Z,66.82
2022-10-04T20:46:25.478Z,69.85
2022-10-04T20:49:27.158Z,77.43
2022-10-04T20:52:32.569Z,67.05
2022-10-04T20:55:39.125Z,69.90
2022-10-04T20:58:41.246Z,57.55
2022-10-04T21:01:44.946Z,55.05
2022-10-04T21:04:47.569Z,48.08
2022-10-04T21:07:48.558Z,37.47
2022-10-04T21:11:09.565Z,29.40
2022-10-04T21:14:32.518Z,33.58
2022-10-04T21:17:36.105Z,60.60
2022-10-04T21:20:50.644Z,53.70
2022-10-04T21:23:51.769Z,44.30
2022-10-04T21:26:57.282Z,42.25
2022-10-04T21:30:00.713Z,71.20
2022-10-04T21:33:01.845Z,87.80
2022-10-04T21:36:04.109Z,80.70
2022-10-04T21:39:05.271Z,59.63
2022-10-04T21:42:07.066Z,51.58
2022-10-04T21:45:08.450Z,54.75
2022-10-04T21:48:09.216Z,45.55
2022-10-04T21:51:09.914Z,48.85
2022-10-04T21:54:10.887Z,53.42
2022-10-04T21:57:13.562Z,68.90
2022-10-04T22:00:14.397Z,63.25
2022-10-04T22:03:15.281Z,77.22
2022-10-04T22:06:16.158Z,83.50
2022-10-04T22:09:17.051Z,61.88
2022-10-04T22:12:17.826Z,43.28
2022-10-04T22:15:18.593Z,51.15
2022-10-04T22:18:19.577Z,62.10
2022-10-04T22:21:20.407Z,93.60
2022-10-04T22:24:21.928Z,110.60
2022-10-04T22:27:23.197Z,112.75
2022-10-04T22:30:29.177Z,94.20
2022-10-04T22:33:39.624Z,95.35
2022-10-04T22:36:40.774Z,96.43
2022-10-04T22:39:41.706Z,98.63
2022-10-04T22:42:43.546Z,106.20
2022-10-04T22:45:44.416Z,132.48
2022-10-04T22:48:49.139Z,155.18
2022-10-04T22:51:53.195Z,124.25
2022-10-04T22:55:00.504Z,129.27
2022-10-04T22:58:02.933Z,136.60
2022-10-04T23:01:13.081Z,174.18
2022-10-04T23:04:25.834Z,258.25
2022-10-04T23:07:27.120Z,350.00
2022-10-04T23:10:28.265Z,1172.60
2022-10-04T23:13:29.411Z,524.08
2022-10-04T23:16:31.699Z,397.98
2022-10-04T23:19:32.780Z,338.77
2022-10-04T23:22:34.069Z,913.75
2022-10-04T23:25:35.175Z,969.78
2022-10-04T23:28:37.352Z,818.00
2022-10-04T23:31:38.754Z,781.10
2022-10-04T23:34:44.096Z,858.15
2022-10-04T23:37:46.106Z,477.17
2022-10-04T23:40:47.115Z,881.70
2022-10-04T23:43:49.525Z,627.42
2022-10-04T23:46:51.746Z,880.92
2022-10-04T23:49:54.015Z,653.17
2022-10-04T23:53:02.621Z,885.22
2022-10-04T23:56:15.274Z,466.27
2022-10-04T23:59:23.748Z,549.60
